Ατυχήματα - συμβάντα της Turkish Airlines

Εδώ όλες οι πληροφορίες και ερωτήσεις για αεροπορικές τραγωδίες, προσγειώσεις ασφαλείας κτλ.
Bladerunner
Economy-Class
Economy-Class
Δημοσιεύσεις: 188
Εγγραφή: 21 Ιαν 2010, 03:00
x 38

Re: Ατυχήματα - συμβάντα της Turkish Airlines

Δημοσίευσηαπό Bladerunner » 05 Μαρ 2020, 03:01

Δεν υπάρχει συρματασφάλιση εκεί! Οι nose wheels του 320, όπως και οι main, ασφαλίζουν με ένα μεγάλο custle nut το οποίο με την σειρά του ασφαλίζει με δυο bolt και custle nuts με κοπήλιες.
Απο τις φωτογραφίες δεν φαίνεται ζημιά στους άξονες, οι τροχοί απλά έφυγαν απο την θέση τους, πραγματικά απορώ, ο μόνος τρόπος που σκέφτομαι για να γίνει αυτό είναι να μην μπήκαν καν τα ασφαλιστικά bolts και το nut του τροχού να μην έσφιξε με την σωστή ροπή και να έφυγε..
1 x


Άβαταρ μέλους
convair
Economy-Class
Economy-Class
Δημοσιεύσεις: 179
Εγγραφή: 22 Αύγ 2006, 12:49
Πλησιέστερο αεροδρόμιο (ICAO Code): LGEL
Τοποθεσία: Athens
x 18
Επικοινωνία:

Re: Ατυχήματα - συμβάντα της Turkish Airlines

Δημοσίευσηαπό convair » 05 Μαρ 2020, 03:32

Χαχαχα, μάλλον σκεφτόταν ότι αφού δεν χρειάζεται συρματασφάλιση δεν θα χρειάζεται και κοπίλια... :banana:
1 x
_____________________
design with beauty in mind

CHRISTOS55
Business-Class
Business-Class
Δημοσιεύσεις: 433
Εγγραφή: 12 Ιαν 2014, 12:43
Αγαπημένη αεροπορική εταιρεία (ICAO Code): OAL
Πλησιέστερο αεροδρόμιο (ICAO Code): LGAT
x 127

Re: Ατυχήματα - συμβάντα της Turkish Airlines

Δημοσίευσηαπό CHRISTOS55 » 05 Μαρ 2020, 08:29

Αν η φωτογραφία είναι σωστή δείχνει το nut και το bolt να είναι στη θέση τους και ότι το α/φος μόλις ακούμπησε εκεί χωρίς να έχει συρθεί καθόλου !!!!!
0 x

Άβαταρ μέλους
Nontas
Business-Class
Business-Class
Δημοσιεύσεις: 344
Εγγραφή: 25 Απρ 2007, 19:06
x 94

Re: Ατυχήματα - συμβάντα της Turkish Airlines

Δημοσίευσηαπό Nontas » 05 Μαρ 2020, 12:08

Δεν ήταν τεχνικό το πρόβλημα απ οτι φαίνεται, ήταν θέμα συνθηκών και χειριστικό:

LTFM 270950Z 22030G40KT 9999 FEW040 BKN180 18/07 Q1004 NOSIG=
LTFM 270920Z 21034G44KT 9999 FEW040 BKN180 18/07 Q1004 NOSIG=

μαρτυρία επιβάτη απ το av herald:
Was on the flight, seated in row 4.
Bumpy landing: initial touchdown with the front wheel, then one bump into the air. Upon the second touch down of the front wheel, a loud bang was followed by an abrupt steer to either side of the center line
1 x



Επιστροφή σε “Ατυχήματα και συμβάντα”

Μέλη σε σύνδεση

Μέλη σε αυτήν τη Δ. Συζήτηση: Δεν υπάρχουν εγγεγραμμένα μέλη και 2 επισκέπτες